sensor_id;sensor_type;location;lat;lon;timestamp;pressure;altitude;pressure_sealevel;temperature;humidity
22753;BME280;11543;43.144;24.684;2023-03-14T00:02:34;99041.50;;;6.25;53.75
22753;BME280;11543;43.144;24.684;2023-03-14T00:04:59;99028.91;;;6.27;52.86
22753;BME280;11543;43.144;24.684;2023-03-14T00:07:27;99039.53;;;6.38;52.33
22753;BME280;11543;43.144;24.684;2023-03-14T00:09:57;99025.38;;;6.38;52.25
22753;BME280;11543;43.144;24.684;2023-03-14T00:12:22;99024.88;;;6.44;52.65
22753;BME280;11543;43.144;24.684;2023-03-14T00:14:48;99029.34;;;6.44;52.17
22753;BME280;11543;43.144;24.684;2023-03-14T00:17:13;99011.31;;;6.36;51.80
22753;BME280;11543;43.144;24.684;2023-03-14T00:19:39;99010.56;;;6.45;51.50
22753;BME280;11543;43.144;24.684;2023-03-14T00:22:04;99007.91;;;6.45;51.75
22753;BME280;11543;43.144;24.684;2023-03-14T00:24:30;99012.34;;;6.56;50.91
22753;BME280;11543;43.144;24.684;2023-03-14T00:26:55;98995.41;;;6.46;51.98
22753;BME280;11543;43.144;24.684;2023-03-14T00:29:21;98999.47;;;6.29;52.03
22753;BME280;11543;43.144;24.684;2023-03-14T00:31:46;98991.84;;;6.24;52.94
22753;BME280;11543;43.144;24.684;2023-03-14T00:34:12;99003.44;;;6.34;52.94
22753;BME280;11543;43.144;24.684;2023-03-14T00:36:37;98983.50;;;6.18;52.80
22753;BME280;11543;43.144;24.684;2023-03-14T00:39:03;98991.00;;;5.90;52.64
22753;BME280;11543;43.144;24.684;2023-03-14T00:41:28;98999.34;;;5.63;52.90
22753;BME280;11543;43.144;24.684;2023-03-14T00:43:54;98987.19;;;5.26;52.93
22753;BME280;11543;43.144;24.684;2023-03-14T00:46:19;99013.63;;;5.16;53.14
22753;BME280;11543;43.144;24.684;2023-03-14T00:48:45;98987.94;;;4.93;53.98
22753;BME280;11543;43.144;24.684;2023-03-14T00:51:11;98977.50;;;4.78;54.02
22753;BME280;11543;43.144;24.684;2023-03-14T00:53:39;98996.09;;;4.78;54.86
22753;BME280;11543;43.144;24.684;2023-03-14T00:56:08;98988.28;;;4.88;55.90
22753;BME280;11543;43.144;24.684;2023-03-14T00:58:34;98980.00;;;5.04;55.74
22753;BME280;11543;43.144;24.684;2023-03-14T01:01:09;98967.06;;;5.10;55.71
22753;BME280;11543;43.144;24.684;2023-03-14T01:03:35;98959.53;;;4.93;56.15
22753;BME280;11543;43.144;24.684;2023-03-14T01:06:16;98974.38;;;4.85;55.41
22753;BME280;11543;43.144;24.684;2023-03-14T01:08:43;98969.88;;;4.74;55.28
22753;BME280;11543;43.144;24.684;2023-03-14T01:11:11;98957.31;;;4.76;56.37
22753;BME280;11543;43.144;24.684;2023-03-14T01:13:38;98968.63;;;5.02;56.46
22753;BME280;11543;43.144;24.684;2023-03-14T01:16:06;98945.00;;;4.75;55.73
22753;BME280;11543;43.144;24.684;2023-03-14T01:18:33;98960.16;;;4.62;55.63
22753;BME280;11543;43.144;24.684;2023-03-14T01:21:01;98956.78;;;4.60;56.86
22753;BME280;11543;43.144;24.684;2023-03-14T01:23:27;98939.91;;;4.72;57.51
22753;BME280;11543;43.144;24.684;2023-03-14T01:25:52;98961.84;;;4.98;56.60
22753;BME280;11543;43.144;24.684;2023-03-14T01:28:18;98948.19;;;5.02;56.25
22753;BME280;11543;43.144;24.684;2023-03-14T01:30:44;98941.22;;;5.12;55.67
22753;BME280;11543;43.144;24.684;2023-03-14T01:33:09;98938.06;;;5.19;55.17
22753;BME280;11543;43.144;24.684;2023-03-14T01:35:36;98927.00;;;5.25;54.94
22753;BME280;11543;43.144;24.684;2023-03-14T01:38:02;98942.00;;;5.37;53.99
22753;BME280;11543;43.144;24.684;2023-03-14T01:40:27;98944.16;;;5.43;53.90
22753;BME280;11543;43.144;24.684;2023-03-14T01:42:57;98930.13;;;5.30;54.21
22753;BME280;11543;43.144;24.684;2023-03-14T01:46:43;98947.41;;;5.24;54.60
22753;BME280;11543;43.144;24.684;2023-03-14T01:51:35;98930.72;;;5.22;55.83
22753;BME280;11543;43.144;24.684;2023-03-14T01:54:26;98932.19;;;5.37;55.57
22753;BME280;11543;43.144;24.684;2023-03-14T01:56:58;98946.09;;;5.52;55.11
22753;BME280;11543;43.144;24.684;2023-03-14T01:59:29;98936.44;;;5.51;55.74
22753;BME280;11543;43.144;24.684;2023-03-14T02:01:55;98942.09;;;5.58;55.70
22753;BME280;11543;43.144;24.684;2023-03-14T02:04:21;98936.91;;;5.56;55.66
22753;BME280;11543;43.144;24.684;2023-03-14T02:06:59;98934.50;;;5.64;54.76
22753;BME280;11543;43.144;24.684;2023-03-14T02:09:28;98922.41;;;5.60;54.78
22753;BME280;11543;43.144;24.684;2023-03-14T02:11:55;98948.03;;;5.72;55.61
22753;BME280;11543;43.144;24.684;2023-03-14T02:14:34;98920.22;;;5.54;55.01
22753;BME280;11543;43.144;24.684;2023-03-14T02:17:01;98944.03;;;5.33;54.63
22753;BME280;11543;43.144;24.684;2023-03-14T02:22:17;98941.59;;;4.73;55.55
22753;BME280;11543;43.144;24.684;2023-03-14T02:27:27;98937.97;;;4.74;56.51
22753;BME280;11543;43.144;24.684;2023-03-14T02:29:57;98959.53;;;4.93;56.37
22753;BME280;11543;43.144;24.684;2023-03-14T02:32:25;98956.88;;;4.93;56.38
22753;BME280;11543;43.144;24.684;2023-03-14T02:34:55;98955.34;;;4.67;55.75
22753;BME280;11543;43.144;24.684;2023-03-14T02:37:24;98937.63;;;4.43;56.43
22753;BME280;11543;43.144;24.684;2023-03-14T02:39:51;98956.91;;;4.34;56.17
22753;BME280;11543;43.144;24.684;2023-03-14T02:42:17;98948.00;;;3.99;55.92
22753;BME280;11543;43.144;24.684;2023-03-14T02:45:29;98943.94;;;3.69;56.19
22753;BME280;11543;43.144;24.684;2023-03-14T02:47:51;98939.06;;;3.63;56.87
22753;BME280;11543;43.144;24.684;2023-03-14T02:50:22;98937.31;;;3.88;58.19
22753;BME280;11543;43.144;24.684;2023-03-14T02:52:50;98956.09;;;4.21;58.47
22753;BME280;11543;43.144;24.684;2023-03-14T02:55:20;98948.81;;;4.36;57.93
22753;BME280;11543;43.144;24.684;2023-03-14T02:57:46;98940.06;;;4.46;57.60
22753;BME280;11543;43.144;24.684;2023-03-14T03:00:12;98945.06;;;4.62;57.30
22753;BME280;11543;43.144;24.684;2023-03-14T03:02:38;98939.66;;;4.75;56.84
22753;BME280;11543;43.144;24.684;2023-03-14T03:05:04;98923.72;;;4.75;56.23
22753;BME280;11543;43.144;24.684;2023-03-14T03:07:30;98915.53;;;4.78;56.17
22753;BME280;11543;43.144;24.684;2023-03-14T03:09:55;98925.44;;;4.87;55.69
22753;BME280;11543;43.144;24.684;2023-03-14T03:12:21;98928.38;;;4.95;55.93
22753;BME280;11543;43.144;24.684;2023-03-14T03:14:46;98931.53;;;5.11;56.10
22753;BME280;11543;43.144;24.684;2023-03-14T03:17:12;98917.50;;;5.09;55.50
22753;BME280;11543;43.144;24.684;2023-03-14T03:19:37;98919.19;;;5.10;54.99
22753;BME280;11543;43.144;24.684;2023-03-14T03:22:03;98915.09;;;5.18;55.68
22753;BME280;11543;43.144;24.684;2023-03-14T03:24:28;98905.19;;;5.08;55.80
22753;BME280;11543;43.144;24.684;2023-03-14T03:26:54;98924.69;;;5.20;55.83
22753;BME280;11543;43.144;24.684;2023-03-14T03:29:20;98903.72;;;5.04;55.96
22753;BME280;11543;43.144;24.684;2023-03-14T03:31:45;98906.38;;;4.93;55.74
22753;BME280;11543;43.144;24.684;2023-03-14T03:34:12;98915.00;;;4.62;55.83
22753;BME280;11543;43.144;24.684;2023-03-14T03:36:37;98896.31;;;4.39;56.37
22753;BME280;11543;43.144;24.684;2023-03-14T03:39:03;98901.78;;;4.49;57.15
22753;BME280;11543;43.144;24.684;2023-03-14T03:41:29;98899.75;;;4.53;56.98
22753;BME280;11543;43.144;24.684;2023-03-14T03:43:55;98909.28;;;4.31;56.60
22753;BME280;11543;43.144;24.684;2023-03-14T03:46:21;98896.19;;;4.17;57.27
22753;BME280;11543;43.144;24.684;2023-03-14T03:48:46;98904.91;;;4.19;57.44
22753;BME280;11543;43.144;24.684;2023-03-14T03:51:15;98903.31;;;4.16;57.78
22753;BME280;11543;43.144;24.684;2023-03-14T03:53:42;98906.81;;;4.17;57.55
22753;BME280;11543;43.144;24.684;2023-03-14T03:56:08;98896.38;;;4.03;57.80
22753;BME280;11543;43.144;24.684;2023-03-14T03:58:34;98896.47;;;4.01;57.77
22753;BME280;11543;43.144;24.684;2023-03-14T04:01:00;98905.69;;;4.08;58.03
22753;BME280;11543;43.144;24.684;2023-03-14T04:03:26;98890.94;;;4.04;57.80
22753;BME280;11543;43.144;24.684;2023-03-14T04:06:17;98901.84;;;4.36;58.17
22753;BME280;11543;43.144;24.684;2023-03-14T04:08:43;98895.41;;;4.52;57.85
22753;BME280;11543;43.144;24.684;2023-03-14T04:11:09;98891.06;;;4.62;57.23
22753;BME280;11543;43.144;24.684;2023-03-14T04:13:34;98890.25;;;4.72;56.92
22753;BME280;11543;43.144;24.684;2023-03-14T04:16:00;98887.97;;;4.79;56.71
22753;BME280;11543;43.144;24.684;2023-03-14T04:18:26;98899.59;;;4.89;56.23
22753;BME280;11543;43.144;24.684;2023-03-14T04:24:14;98886.56;;;4.97;56.34
22753;BME280;11543;43.144;24.684;2023-03-14T04:26:39;98879.31;;;4.99;56.09
22753;BME280;11543;43.144;24.684;2023-03-14T04:29:05;98863.34;;;4.99;55.60
22753;BME280;11543;43.144;24.684;2023-03-14T04:31:30;98873.38;;;5.07;55.75
22753;BME280;11543;43.144;24.684;2023-03-14T04:33:56;98869.88;;;5.06;55.50
22753;BME280;11543;43.144;24.684;2023-03-14T04:36:21;98864.69;;;5.05;56.05
22753;BME280;11543;43.144;24.684;2023-03-14T04:38:47;98872.53;;;5.06;55.92
22753;BME280;11543;43.144;24.684;2023-03-14T04:41:12;98853.06;;;4.84;56.24
22753;BME280;11543;43.144;24.684;2023-03-14T04:43:38;98861.38;;;4.68;56.63
22753;BME280;11543;43.144;24.684;2023-03-14T04:46:04;98870.00;;;4.36;56.21
22753;BME280;11543;43.144;24.684;2023-03-14T04:48:29;98861.75;;;4.04;56.09
22753;BME280;11543;43.144;24.684;2023-03-14T04:50:55;98865.94;;;3.96;56.89
22753;BME280;11543;43.144;24.684;2023-03-14T04:53:21;98878.47;;;3.94;57.74
22753;BME280;11543;43.144;24.684;2023-03-14T04:55:50;98871.25;;;3.96;58.85
22753;BME280;11543;43.144;24.684;2023-03-14T04:58:16;98876.03;;;4.14;58.62
22753;BME280;11543;43.144;24.684;2023-03-14T05:00:43;98875.97;;;4.27;58.40
22753;BME280;11543;43.144;24.684;2023-03-14T05:03:08;98880.63;;;4.36;58.28
22753;BME280;11543;43.144;24.684;2023-03-14T05:05:34;98881.72;;;4.21;57.66
22753;BME280;11543;43.144;24.684;2023-03-14T05:07:59;98871.78;;;4.12;57.89
22753;BME280;11543;43.144;24.684;2023-03-14T05:10:25;98875.47;;;4.22;58.31
22753;BME280;11543;43.144;24.684;2023-03-14T05:12:51;98868.28;;;4.35;57.92
22753;BME280;11543;43.144;24.684;2023-03-14T05:15:16;98866.63;;;4.45;57.70
22753;BME280;11543;43.144;24.684;2023-03-14T05:17:42;98861.84;;;4.62;57.29
22753;BME280;11543;43.144;24.684;2023-03-14T05:20:08;98863.56;;;4.74;57.47
22753;BME280;11543;43.144;24.684;2023-03-14T05:22:34;98852.94;;;4.85;57.07
22753;BME280;11543;43.144;24.684;2023-03-14T05:25:00;98852.34;;;4.93;57.04
22753;BME280;11543;43.144;24.684;2023-03-14T05:27:26;98858.00;;;4.77;57.01
22753;BME280;11543;43.144;24.684;2023-03-14T05:29:52;98855.56;;;4.63;57.04
22753;BME280;11543;43.144;24.684;2023-03-14T05:32:17;98868.59;;;4.55;57.21
22753;BME280;11543;43.144;24.684;2023-03-14T05:34:43;98872.69;;;4.47;57.74
22753;BME280;11543;43.144;24.684;2023-03-14T05:37:08;98874.22;;;4.39;57.91
22753;BME280;11543;43.144;24.684;2023-03-14T05:39:34;98861.50;;;4.31;58.62
22753;BME280;11543;43.144;24.684;2023-03-14T05:42:02;98875.31;;;4.36;59.19
22753;BME280;11543;43.144;24.684;2023-03-14T05:44:28;98873.16;;;4.41;59.04
22753;BME280;11543;43.144;24.684;2023-03-14T05:46:53;98865.94;;;4.55;58.92
22753;BME280;11543;43.144;24.684;2023-03-14T05:49:19;98865.50;;;4.72;58.70
22753;BME280;11543;43.144;24.684;2023-03-14T05:51:44;98866.84;;;4.89;57.72
22753;BME280;11543;43.144;24.684;2023-03-14T05:54:10;98854.41;;;5.00;57.43
22753;BME280;11543;43.144;24.684;2023-03-14T05:56:35;98845.22;;;5.16;57.30
22753;BME280;11543;43.144;24.684;2023-03-14T05:59:01;98848.88;;;5.26;57.28
22753;BME280;11543;43.144;24.684;2023-03-14T06:01:29;98856.00;;;5.36;57.55
22753;BME280;11543;43.144;24.684;2023-03-14T06:03:55;98849.25;;;5.32;57.30
22753;BME280;11543;43.144;24.684;2023-03-14T06:06:22;98848.41;;;5.21;57.42
22753;BME280;11543;43.144;24.684;2023-03-14T06:08:47;98856.00;;;5.14;57.57
22753;BME280;11543;43.144;24.684;2023-03-14T06:11:13;98850.44;;;5.17;57.91
22753;BME280;11543;43.144;24.684;2023-03-14T06:13:38;98849.72;;;5.26;58.04
22753;BME280;11543;43.144;24.684;2023-03-14T06:16:04;98845.63;;;5.33;58.17
22753;BME280;11543;43.144;24.684;2023-03-14T06:18:30;98844.66;;;5.34;58.33
22753;BME280;11543;43.144;24.684;2023-03-14T06:20:56;98845.59;;;5.44;58.42
22753;BME280;11543;43.144;24.684;2023-03-14T06:23:22;98844.25;;;5.61;58.41
22753;BME280;11543;43.144;24.684;2023-03-14T06:25:49;98840.22;;;5.78;58.55
22753;BME280;11543;43.144;24.684;2023-03-14T06:28:14;98834.50;;;5.94;58.53
22753;BME280;11543;43.144;24.684;2023-03-14T06:30:40;98837.13;;;6.05;58.32
22753;BME280;11543;43.144;24.684;2023-03-14T06:33:06;98831.06;;;6.14;57.70
22753;BME280;11543;43.144;24.684;2023-03-14T06:35:33;98835.63;;;6.23;57.95
22753;BME280;11543;43.144;24.684;2023-03-14T06:38:00;98825.94;;;6.22;57.37
22753;BME280;11543;43.144;24.684;2023-03-14T06:40:26;98826.16;;;6.30;57.72
22753;BME280;11543;43.144;24.684;2023-03-14T06:42:51;98827.06;;;6.41;57.77
22753;BME280;11543;43.144;24.684;2023-03-14T06:45:17;98821.75;;;6.41;57.16
22753;BME280;11543;43.144;24.684;2023-03-14T06:47:43;98835.06;;;6.41;57.12
22753;BME280;11543;43.144;24.684;2023-03-14T06:50:09;98836.56;;;6.33;56.41
22753;BME280;11543;43.144;24.684;2023-03-14T06:52:36;98831.47;;;6.30;56.24
22753;BME280;11543;43.144;24.684;2023-03-14T06:55:01;98837.66;;;6.31;55.95
22753;BME280;11543;43.144;24.684;2023-03-14T06:57:27;98840.44;;;6.29;55.92
22753;BME280;11543;43.144;24.684;2023-03-14T06:59:52;98829.06;;;6.27;56.11
22753;BME280;11543;43.144;24.684;2023-03-14T07:02:18;98834.34;;;6.38;55.66
22753;BME280;11543;43.144;24.684;2023-03-14T07:04:45;98821.09;;;6.48;55.73
22753;BME280;11543;43.144;24.684;2023-03-14T07:07:10;98817.69;;;6.67;55.83
22753;BME280;11543;43.144;24.684;2023-03-14T07:09:36;98809.94;;;6.85;55.50
22753;BME280;11543;43.144;24.684;2023-03-14T07:12:02;98804.41;;;6.97;54.98
22753;BME280;11543;43.144;24.684;2023-03-14T07:14:29;98806.16;;;7.08;54.87
22753;BME280;11543;43.144;24.684;2023-03-14T07:16:56;98793.56;;;7.20;55.01
22753;BME280;11543;43.144;24.684;2023-03-14T07:19:22;98797.00;;;7.41;54.74
22753;BME280;11543;43.144;24.684;2023-03-14T07:21:47;98788.72;;;7.44;54.16
22753;BME280;11543;43.144;24.684;2023-03-14T07:24:13;98792.81;;;7.48;53.96
22753;BME280;11543;43.144;24.684;2023-03-14T07:26:38;98797.59;;;7.64;53.65
22753;BME280;11543;43.144;24.684;2023-03-14T07:29:06;98793.13;;;7.74;53.33
22753;BME280;11543;43.144;24.684;2023-03-14T07:31:32;98797.38;;;7.86;52.97
22753;BME280;11543;43.144;24.684;2023-03-14T07:33:57;98790.09;;;7.98;52.64
22753;BME280;11543;43.144;24.684;2023-03-14T07:36:23;98790.66;;;8.11;52.60
22753;BME280;11543;43.144;24.684;2023-03-14T07:38:49;98785.00;;;8.24;52.45
22753;BME280;11543;43.144;24.684;2023-03-14T07:41:15;98783.31;;;8.32;52.42
22753;BME280;11543;43.144;24.684;2023-03-14T07:43:40;98783.59;;;8.49;51.95
22753;BME280;11543;43.144;24.684;2023-03-14T07:46:07;98771.75;;;8.61;52.11
22753;BME280;11543;43.144;24.684;2023-03-14T07:48:33;98765.00;;;8.76;52.01
22753;BME280;11543;43.144;24.684;2023-03-14T07:50:58;98775.91;;;8.92;51.36
22753;BME280;11543;43.144;24.684;2023-03-14T07:53:24;98783.16;;;9.10;51.13
22753;BME280;11543;43.144;24.684;2023-03-14T07:55:52;98764.25;;;9.21;50.13
22753;BME280;11543;43.144;24.684;2023-03-14T07:58:18;98775.09;;;9.47;50.21
22753;BME280;11543;43.144;24.684;2023-03-14T08:00:44;98763.38;;;9.57;48.80
22753;BME280;11543;43.144;24.684;2023-03-14T08:03:09;98761.47;;;9.68;48.32
22753;BME280;11543;43.144;24.684;2023-03-14T08:05:36;98747.84;;;9.79;47.59
22753;BME280;11543;43.144;24.684;2023-03-14T08:08:04;98743.78;;;9.93;47.11
22753;BME280;11543;43.144;24.684;2023-03-14T08:10:30;98750.13;;;10.09;46.74
22753;BME280;11543;43.144;24.684;2023-03-14T08:12:57;98753.66;;;10.28;45.65
22753;BME280;11543;43.144;24.684;2023-03-14T08:15:23;98745.69;;;10.36;44.46
22753;BME280;11543;43.144;24.684;2023-03-14T08:17:50;98742.63;;;10.48;43.71
22753;BME280;11543;43.144;24.684;2023-03-14T08:20:21;98744.56;;;10.64;42.92
22753;BME280;11543;43.144;24.684;2023-03-14T08:22:47;98740.94;;;10.73;42.63
22753;BME280;11543;43.144;24.684;2023-03-14T08:25:13;98743.03;;;10.88;42.32
22753;BME280;11543;43.144;24.684;2023-03-14T08:27:39;98721.25;;;10.91;42.18
22753;BME280;11543;43.144;24.684;2023-03-14T08:30:07;98727.69;;;11.06;42.19
22753;BME280;11543;43.144;24.684;2023-03-14T08:32:33;98726.06;;;11.21;41.87
22753;BME280;11543;43.144;24.684;2023-03-14T08:34:59;98717.44;;;11.35;42.34
22753;BME280;11543;43.144;24.684;2023-03-14T08:37:24;98722.84;;;11.52;41.66
22753;BME280;11543;43.144;24.684;2023-03-14T08:39:51;98731.63;;;11.70;42.47
22753;BME280;11543;43.144;24.684;2023-03-14T08:42:17;98721.88;;;11.77;42.19
22753;BME280;11543;43.144;24.684;2023-03-14T08:44:43;98730.69;;;11.95;41.67
22753;BME280;11543;43.144;24.684;2023-03-14T08:47:08;98723.63;;;12.10;41.48
22753;BME280;11543;43.144;24.684;2023-03-14T08:49:34;98711.06;;;12.19;41.63
22753;BME280;11543;43.144;24.684;2023-03-14T08:52:02;98714.91;;;12.41;40.96
22753;BME280;11543;43.144;24.684;2023-03-14T08:54:28;98715.72;;;12.58;41.22
22753;BME280;11543;43.144;24.684;2023-03-14T08:56:54;98708.63;;;12.73;40.28
22753;BME280;11543;43.144;24.684;2023-03-14T08:59:19;98709.06;;;12.93;40.58
22753;BME280;11543;43.144;24.684;2023-03-14T09:01:45;98704.00;;;13.06;39.62
22753;BME280;11543;43.144;24.684;2023-03-14T09:04:10;98701.78;;;13.18;40.07
22753;BME280;11543;43.144;24.684;2023-03-14T09:06:36;98699.50;;;13.37;38.62
22753;BME280;11543;43.144;24.684;2023-03-14T09:09:02;98686.28;;;13.51;39.22
22753;BME280;11543;43.144;24.684;2023-03-14T09:11:27;98696.44;;;13.71;39.57
22753;BME280;11543;43.144;24.684;2023-03-14T09:13:53;98688.25;;;13.88;39.97
22753;BME280;11543;43.144;24.684;2023-03-14T09:16:18;98682.63;;;13.97;39.19
22753;BME280;11543;43.144;24.684;2023-03-14T09:18:44;98685.84;;;14.16;37.38
22753;BME280;11543;43.144;24.684;2023-03-14T09:21:10;98675.91;;;14.31;36.29
22753;BME280;11543;43.144;24.684;2023-03-14T09:23:35;98671.59;;;14.45;35.31
22753;BME280;11543;43.144;24.684;2023-03-14T09:26:01;98653.75;;;14.58;34.41
22753;BME280;11543;43.144;24.684;2023-03-14T09:28:27;98669.59;;;14.76;32.96
22753;BME280;11543;43.144;24.684;2023-03-14T09:30:52;98650.44;;;14.86;32.82
22753;BME280;11543;43.144;24.684;2023-03-14T09:33:19;98635.78;;;14.95;33.33
22753;BME280;11543;43.144;24.684;2023-03-14T09:35:45;98643.69;;;15.11;33.31
22753;BME280;11543;43.144;24.684;2023-03-14T09:38:10;98649.31;;;15.31;33.97
22753;BME280;11543;43.144;24.684;2023-03-14T09:40:37;98636.59;;;15.46;33.15
22753;BME280;11543;43.144;24.684;2023-03-14T09:43:03;98636.69;;;15.53;32.74
22753;BME280;11543;43.144;24.684;2023-03-14T09:45:33;98617.69;;;15.61;33.69
22753;BME280;11543;43.144;24.684;2023-03-14T09:48:01;98617.88;;;15.81;32.62
22753;BME280;11543;43.144;24.684;2023-03-14T09:50:32;98619.22;;;15.91;33.18
22753;BME280;11543;43.144;24.684;2023-03-14T09:53:11;98591.00;;;16.01;32.66
22753;BME280;11543;43.144;24.684;2023-03-14T09:55:38;98607.34;;;16.14;32.00
22753;BME280;11543;43.144;24.684;2023-03-14T09:58:10;98607.81;;;16.24;30.91
22753;BME280;11543;43.144;24.684;2023-03-14T10:00:36;98593.31;;;16.32;30.21
22753;BME280;11543;43.144;24.684;2023-03-14T10:05:37;98599.34;;;16.62;31.09
22753;BME280;11543;43.144;24.684;2023-03-14T10:08:03;98561.03;;;16.65;31.20
22753;BME280;11543;43.144;24.684;2023-03-14T10:10:30;98564.88;;;16.77;31.70
22753;BME280;11543;43.144;24.684;2023-03-14T10:13:10;98562.44;;;16.95;32.68
22753;BME280;11543;43.144;24.684;2023-03-14T10:15:38;98568.38;;;17.18;32.09
22753;BME280;11543;43.144;24.684;2023-03-14T10:18:10;98558.38;;;17.26;32.64
22753;BME280;11543;43.144;24.684;2023-03-14T10:20:45;98552.19;;;17.45;33.32
22753;BME280;11543;43.144;24.684;2023-03-14T10:25:39;98546.41;;;17.74;33.33
22753;BME280;11543;43.144;24.684;2023-03-14T10:28:22;98533.47;;;17.83;32.81
22753;BME280;11543;43.144;24.684;2023-03-14T10:30:48;98524.47;;;17.96;32.31
22753;BME280;11543;43.144;24.684;2023-03-14T10:35:42;98510.47;;;18.12;31.91
22753;BME280;11543;43.144;24.684;2023-03-14T10:38:13;98508.38;;;18.14;32.26
22753;BME280;11543;43.144;24.684;2023-03-14T10:40:41;98516.31;;;18.29;32.14
22753;BME280;11543;43.144;24.684;2023-03-14T10:43:16;98492.06;;;18.27;31.27
22753;BME280;11543;43.144;24.684;2023-03-14T10:45:51;98501.25;;;18.33;31.45
22753;BME280;11543;43.144;24.684;2023-03-14T10:48:37;98499.53;;;18.52;31.17
22753;BME280;11543;43.144;24.684;2023-03-14T10:51:19;98490.09;;;18.61;31.29
22753;BME280;11543;43.144;24.684;2023-03-14T10:53:57;98471.31;;;18.53;31.52
22753;BME280;11543;43.144;24.684;2023-03-14T10:56:25;98466.91;;;18.58;30.70
22753;BME280;11543;43.144;24.684;2023-03-14T10:58:57;98457.25;;;18.69;30.65
22753;BME280;11543;43.144;24.684;2023-03-14T11:01:41;98453.88;;;18.80;29.95
22753;BME280;11543;43.144;24.684;2023-03-14T11:07:27;98447.47;;;18.99;29.13
22753;BME280;11543;43.144;24.684;2023-03-14T11:10:31;98439.50;;;19.04;28.11
22753;BME280;11543;43.144;24.684;2023-03-14T11:20:59;98405.47;;;19.27;27.89
22753;BME280;11543;43.144;24.684;2023-03-14T11:23:32;98389.50;;;19.37;27.55
22753;BME280;11543;43.144;24.684;2023-03-14T11:26:20;98392.81;;;19.39;27.68
22753;BME280;11543;43.144;24.684;2023-03-14T11:28:57;98376.81;;;19.49;27.52
22753;BME280;11543;43.144;24.684;2023-03-14T11:31:32;98367.78;;;19.55;27.70
22753;BME280;11543;43.144;24.684;2023-03-14T11:36:39;98356.94;;;19.73;26.90
22753;BME280;11543;43.144;24.684;2023-03-14T11:39:17;98342.25;;;19.75;26.41
22753;BME280;11543;43.144;24.684;2023-03-14T11:41:49;98334.63;;;19.65;27.45
22753;BME280;11543;43.144;24.684;2023-03-14T11:44:25;98320.94;;;19.71;26.85
22753;BME280;11543;43.144;24.684;2023-03-14T11:50:02;98315.72;;;19.88;27.33
22753;BME280;11543;43.144;24.684;2023-03-14T11:52:37;98306.88;;;19.93;28.00
22753;BME280;11543;43.144;24.684;2023-03-14T11:55:19;98297.22;;;19.97;27.89
22753;BME280;11543;43.144;24.684;2023-03-14T11:57:48;98304.47;;;20.03;28.34
22753;BME280;11543;43.144;24.684;2023-03-14T12:00:19;98302.13;;;20.07;27.92
22753;BME280;11543;43.144;24.684;2023-03-14T12:03:14;98290.09;;;19.96;27.74
22753;BME280;11543;43.144;24.684;2023-03-14T12:08:49;98283.72;;;19.84;27.17
22753;BME280;11543;43.144;24.684;2023-03-14T12:11:50;98274.38;;;19.80;27.04
22753;BME280;11543;43.144;24.684;2023-03-14T12:14:28;98269.97;;;19.79;26.48
22753;BME280;11543;43.144;24.684;2023-03-14T12:19:39;98259.31;;;19.77;27.60
22753;BME280;11543;43.144;24.684;2023-03-14T12:22:28;98250.47;;;19.82;27.36
22753;BME280;11543;43.144;24.684;2023-03-14T12:25:02;98247.50;;;19.83;27.10
22753;BME280;11543;43.144;24.684;2023-03-14T12:30:44;98242.28;;;20.00;26.32
22753;BME280;11543;43.144;24.684;2023-03-14T12:35:49;98227.44;;;20.14;26.03
22753;BME280;11543;43.144;24.684;2023-03-14T12:38:24;98225.44;;;20.21;26.20
22753;BME280;11543;43.144;24.684;2023-03-14T12:43:30;98206.28;;;20.28;25.10
22753;BME280;11543;43.144;24.684;2023-03-14T12:46:29;98213.81;;;20.44;25.70
22753;BME280;11543;43.144;24.684;2023-03-14T12:51:34;98192.38;;;20.59;25.73
22753;BME280;11543;43.144;24.684;2023-03-14T12:54:07;98193.09;;;20.66;24.80
22753;BME280;11543;43.144;24.684;2023-03-14T12:59:37;98202.03;;;20.85;25.60
22753;BME280;11543;43.144;24.684;2023-03-14T13:04:48;98192.06;;;21.03;24.84
22753;BME280;11543;43.144;24.684;2023-03-14T13:08:19;98179.72;;;21.12;25.03
22753;BME280;11543;43.144;24.684;2023-03-14T13:10:29;98175.94;;;21.13;24.35
22753;BME280;11543;43.144;24.684;2023-03-14T13:15:38;98169.66;;;21.24;23.55
22753;BME280;11543;43.144;24.684;2023-03-14T13:18:15;98153.16;;;21.19;23.78
22753;BME280;11543;43.144;24.684;2023-03-14T13:21:05;98144.16;;;21.07;23.00
22753;BME280;11543;43.144;24.684;2023-03-14T13:23:35;98148.06;;;21.11;23.56
22753;BME280;11543;43.144;24.684;2023-03-14T13:26:02;98142.03;;;21.09;23.33
22753;BME280;11543;43.144;24.684;2023-03-14T13:28:30;98133.63;;;20.98;23.75
22753;BME280;11543;43.144;24.684;2023-03-14T13:31:04;98130.75;;;21.05;23.54
22753;BME280;11543;43.144;24.684;2023-03-14T13:33:32;98124.97;;;21.02;23.58
22753;BME280;11543;43.144;24.684;2023-03-14T13:36:00;98127.22;;;21.05;24.07
22753;BME280;11543;43.144;24.684;2023-03-14T13:38:29;98132.06;;;21.03;23.90
22753;BME280;11543;43.144;24.684;2023-03-14T13:40:56;98124.13;;;21.01;24.14
22753;BME280;11543;43.144;24.684;2023-03-14T13:43:39;98110.53;;;20.89;24.17
22753;BME280;11543;43.144;24.684;2023-03-14T13:46:12;98115.00;;;20.95;24.21
22753;BME280;11543;43.144;24.684;2023-03-14T13:48:44;98104.47;;;20.87;25.17
22753;BME280;11543;43.144;24.684;2023-03-14T13:51:13;98091.06;;;20.74;24.91
22753;BME280;11543;43.144;24.684;2023-03-14T13:53:50;98088.34;;;20.74;24.93
22753;BME280;11543;43.144;24.684;2023-03-14T13:56:18;98082.53;;;20.59;24.52
22753;BME280;11543;43.144;24.684;2023-03-14T13:58:44;98078.41;;;20.56;24.56
22753;BME280;11543;43.144;24.684;2023-03-14T14:01:19;98088.00;;;20.59;25.38
22753;BME280;11543;43.144;24.684;2023-03-14T14:03:48;98076.38;;;20.52;25.11
22753;BME280;11543;43.144;24.684;2023-03-14T14:06:37;98070.81;;;20.47;24.99